Wardsboro, VT (05355)

5:41 PM EDT on September 03, 2015 (GMT -0400)
2 Miles up a dirt road | | Change Station
CLOSE
Current Station
Personal Weather Station
Location: East Dover, VT
Elevation: 1699 ft
Nearby Weather Stations

Elev 1699 ft 42.98 °N, 72.78 °W | Updated 56 seconds ago

Partly Cloudy
Partly Cloudy
77.0 °F
Feels Like 79 °F
N
0.0
Wind Variable Wind from West
Gusts 0.0 mph

Today
High -- | Low -- °F
--% Chance of Precip.
Yesterday
High -- | Low -- °F
Precip. -- in
6:17 AM 7:22 PM
Waning Gibbous, 66% visible
Pressure 29.88 in
Visibility 7.0 miles
Clouds Clear
Heat Index 79 °F
Dew Point 68 °F
Humidity 74%
Rainfall 0.00 in
Snow Depth Not available.
UV 2 out of 12
Pollen 8.20 out of 12
Air Quality Not available.
Flu Activity Not available.
METAR KDDH 032054Z AUTO 00000KT 7SM CLR 26/20 A2989 RMK AO2 LTG DSNT SE SLP116 T02610200 53001
Pressure 29.88 in
Visibility 7.0 miles
Clouds Clear
Heat Index 79 °F
Dew Point 68 °F
Humidity 74%
Rainfall 0.00 in
Snow Depth Not available.
UV 2 out of 12
Pollen 8.20 out of 12
Air Quality Not available.
Flu Activity Not available.
METAR KDDH 032054Z AUTO 00000KT 7SM CLR 26/20 A2989 RMK AO2 LTG DSNT SE SLP116 T02610200 53001

10-Day Weather Forecast

×

Almanac

Astronomy

Sep. 03, 2015 Rise Set
Actual Time
Civil Twilight
Nautical Twilight
Astronomical Twilight
Moon
Length of Visible Light
Length of Day
Tomorrow will be .
, % of the Moon is Illuminated

Today's Extremes

State Highs State Lows

Community

WunderPhotos

Upload Photos

1,852,045 photos uploaded!

WunderBlogs® & News

Nearby

Air Quality

  Air Quality AQ Index Pollutant
Not available.

Snow Depth

Station Depth Elevation

Earthquake Activity

City Distance Mag. Time & Date
Minimum magnitude displayed is 2.5.

Coastal Water Temperatures

Place Temperature

Stations

Nearby Weather Stations

Station Location Temp. Windchill Dew Point Humidity Wind Precip. Elev Updated Type